sensor_id;sensor_type;location;lat;lon;timestamp;temperature;humidity
6118;DHT22;3089;48.202;11.510;2022-10-18T00:00:51;14.40;99.90
6118;DHT22;3089;48.202;11.510;2022-10-18T00:03:19;14.40;99.90
6118;DHT22;3089;48.202;11.510;2022-10-18T00:05:48;14.40;99.90
6118;DHT22;3089;48.202;11.510;2022-10-18T00:08:17;14.20;99.90
6118;DHT22;3089;48.202;11.510;2022-10-18T00:10:45;14.10;99.90
6118;DHT22;3089;48.202;11.510;2022-10-18T00:13:14;14.00;99.90
6118;DHT22;3089;48.202;11.510;2022-10-18T00:15:48;14.00;99.90
6118;DHT22;3089;48.202;11.510;2022-10-18T00:18:16;14.00;99.90
6118;DHT22;3089;48.202;11.510;2022-10-18T00:20:44;13.90;99.90
6118;DHT22;3089;48.202;11.510;2022-10-18T00:23:12;13.90;99.90
6118;DHT22;3089;48.202;11.510;2022-10-18T00:25:40;13.90;99.90
6118;DHT22;3089;48.202;11.510;2022-10-18T00:28:08;13.90;99.90
6118;DHT22;3089;48.202;11.510;2022-10-18T00:30:37;13.90;99.90
6118;DHT22;3089;48.202;11.510;2022-10-18T00:33:05;13.90;99.90
6118;DHT22;3089;48.202;11.510;2022-10-18T00:35:33;13.90;99.90
6118;DHT22;3089;48.202;11.510;2022-10-18T00:38:01;13.90;99.90
6118;DHT22;3089;48.202;11.510;2022-10-18T00:40:29;13.90;99.90
6118;DHT22;3089;48.202;11.510;2022-10-18T00:42:57;13.80;99.90
6118;DHT22;3089;48.202;11.510;2022-10-18T00:45:25;13.80;99.90
6118;DHT22;3089;48.202;11.510;2022-10-18T00:47:57;13.90;99.90
6118;DHT22;3089;48.202;11.510;2022-10-18T00:50:27;13.80;99.90
6118;DHT22;3089;48.202;11.510;2022-10-18T00:52:59;13.70;99.90
6118;DHT22;3089;48.202;11.510;2022-10-18T00:55:30;13.60;99.90
6118;DHT22;3089;48.202;11.510;2022-10-18T00:57:59;13.70;99.90
6118;DHT22;3089;48.202;11.510;2022-10-18T01:00:27;13.70;99.90
6118;DHT22;3089;48.202;11.510;2022-10-18T01:02:57;13.60;99.90
6118;DHT22;3089;48.202;11.510;2022-10-18T01:05:25;13.60;99.90
6118;DHT22;3089;48.202;11.510;2022-10-18T01:08:14;13.60;99.90
6118;DHT22;3089;48.202;11.510;2022-10-18T01:10:50;13.60;99.90
6118;DHT22;3089;48.202;11.510;2022-10-18T01:13:34;13.60;99.90
6118;DHT22;3089;48.202;11.510;2022-10-18T01:16:12;13.50;99.90
6118;DHT22;3089;48.202;11.510;2022-10-18T01:18:51;13.40;99.90
6118;DHT22;3089;48.202;11.510;2022-10-18T01:24:33;13.50;99.90
6118;DHT22;3089;48.202;11.510;2022-10-18T01:27:24;13.50;99.90
6118;DHT22;3089;48.202;11.510;2022-10-18T01:32:47;13.40;99.90
6118;DHT22;3089;48.202;11.510;2022-10-18T01:35:22;13.50;99.90
6118;DHT22;3089;48.202;11.510;2022-10-18T01:37:52;13.60;99.90
6118;DHT22;3089;48.202;11.510;2022-10-18T01:40:23;13.40;99.90
6118;DHT22;3089;48.202;11.510;2022-10-18T01:42:51;13.40;99.90
6118;DHT22;3089;48.202;11.510;2022-10-18T01:45:20;13.30;99.90
6118;DHT22;3089;48.202;11.510;2022-10-18T01:47:50;13.30;99.90
6118;DHT22;3089;48.202;11.510;2022-10-18T01:50:27;13.30;99.90
6118;DHT22;3089;48.202;11.510;2022-10-18T01:52:55;13.30;99.90
6118;DHT22;3089;48.202;11.510;2022-10-18T01:55:28;13.40;99.90
6118;DHT22;3089;48.202;11.510;2022-10-18T01:58:02;13.30;99.90
6118;DHT22;3089;48.202;11.510;2022-10-18T02:00:38;13.30;99.90
6118;DHT22;3089;48.202;11.510;2022-10-18T02:03:14;13.30;99.90
6118;DHT22;3089;48.202;11.510;2022-10-18T02:05:46;13.20;99.90
6118;DHT22;3089;48.202;11.510;2022-10-18T02:08:22;13.10;99.90
6118;DHT22;3089;48.202;11.510;2022-10-18T02:10:54;13.10;99.90
6118;DHT22;3089;48.202;11.510;2022-10-18T02:13:28;13.10;99.90
6118;DHT22;3089;48.202;11.510;2022-10-18T02:15:59;13.20;99.90
6118;DHT22;3089;48.202;11.510;2022-10-18T02:18:33;13.30;99.90
6118;DHT22;3089;48.202;11.510;2022-10-18T02:21:04;13.20;99.90
6118;DHT22;3089;48.202;11.510;2022-10-18T02:23:34;13.10;99.90
6118;DHT22;3089;48.202;11.510;2022-10-18T02:26:03;13.00;99.90
6118;DHT22;3089;48.202;11.510;2022-10-18T02:28:30;13.00;99.90
6118;DHT22;3089;48.202;11.510;2022-10-18T02:31:03;13.10;99.90
6118;DHT22;3089;48.202;11.510;2022-10-18T02:33:38;13.00;99.90
6118;DHT22;3089;48.202;11.510;2022-10-18T02:36:14;13.00;99.90
6118;DHT22;3089;48.202;11.510;2022-10-18T02:38:45;12.90;99.90
6118;DHT22;3089;48.202;11.510;2022-10-18T02:41:21;12.90;99.90
6118;DHT22;3089;48.202;11.510;2022-10-18T02:43:49;12.90;99.90
6118;DHT22;3089;48.202;11.510;2022-10-18T02:46:17;13.00;99.90
6118;DHT22;3089;48.202;11.510;2022-10-18T02:48:47;13.00;99.90
6118;DHT22;3089;48.202;11.510;2022-10-18T02:51:15;13.00;99.90
6118;DHT22;3089;48.202;11.510;2022-10-18T02:53:43;13.10;99.90
6118;DHT22;3089;48.202;11.510;2022-10-18T02:56:10;12.90;99.90
6118;DHT22;3089;48.202;11.510;2022-10-18T02:58:38;12.80;99.90
6118;DHT22;3089;48.202;11.510;2022-10-18T03:01:06;12.80;99.90
6118;DHT22;3089;48.202;11.510;2022-10-18T03:03:34;12.80;99.90
6118;DHT22;3089;48.202;11.510;2022-10-18T03:06:03;12.80;99.90
6118;DHT22;3089;48.202;11.510;2022-10-18T03:08:31;12.90;99.90
6118;DHT22;3089;48.202;11.510;2022-10-18T03:10:59;12.90;99.90
6118;DHT22;3089;48.202;11.510;2022-10-18T03:13:27;12.80;99.90
6118;DHT22;3089;48.202;11.510;2022-10-18T03:15:55;12.80;99.90
6118;DHT22;3089;48.202;11.510;2022-10-18T03:18:23;12.70;99.90
6118;DHT22;3089;48.202;11.510;2022-10-18T03:20:51;12.70;99.90
6118;DHT22;3089;48.202;11.510;2022-10-18T03:23:20;12.60;99.90
6118;DHT22;3089;48.202;11.510;2022-10-18T03:25:48;12.60;99.90
6118;DHT22;3089;48.202;11.510;2022-10-18T03:28:16;12.60;99.90
6118;DHT22;3089;48.202;11.510;2022-10-18T03:30:43;12.60;99.90
6118;DHT22;3089;48.202;11.510;2022-10-18T03:33:11;12.60;99.90
6118;DHT22;3089;48.202;11.510;2022-10-18T03:35:39;12.60;99.90
6118;DHT22;3089;48.202;11.510;2022-10-18T03:38:07;12.60;99.90
6118;DHT22;3089;48.202;11.510;2022-10-18T03:40:36;12.50;99.90
6118;DHT22;3089;48.202;11.510;2022-10-18T03:43:04;12.60;99.90
6118;DHT22;3089;48.202;11.510;2022-10-18T03:45:32;12.70;99.90
6118;DHT22;3089;48.202;11.510;2022-10-18T03:47:59;12.70;99.90
6118;DHT22;3089;48.202;11.510;2022-10-18T03:50:27;12.60;99.90
6118;DHT22;3089;48.202;11.510;2022-10-18T03:52:55;12.70;99.90
6118;DHT22;3089;48.202;11.510;2022-10-18T03:55:23;12.60;99.90
6118;DHT22;3089;48.202;11.510;2022-10-18T03:57:52;12.50;99.90
6118;DHT22;3089;48.202;11.510;2022-10-18T04:00:20;12.40;99.90
6118;DHT22;3089;48.202;11.510;2022-10-18T04:02:48;12.50;99.90
6118;DHT22;3089;48.202;11.510;2022-10-18T04:05:21;12.60;99.90
6118;DHT22;3089;48.202;11.510;2022-10-18T04:07:52;12.60;99.90
6118;DHT22;3089;48.202;11.510;2022-10-18T04:10:20;12.60;99.90
6118;DHT22;3089;48.202;11.510;2022-10-18T04:12:48;12.50;99.90
6118;DHT22;3089;48.202;11.510;2022-10-18T04:15:17;12.50;99.90
6118;DHT22;3089;48.202;11.510;2022-10-18T04:17:45;12.50;99.90
6118;DHT22;3089;48.202;11.510;2022-10-18T04:20:13;12.40;99.90
6118;DHT22;3089;48.202;11.510;2022-10-18T04:22:40;12.40;99.90
6118;DHT22;3089;48.202;11.510;2022-10-18T04:25:08;12.40;99.90
6118;DHT22;3089;48.202;11.510;2022-10-18T04:27:36;12.50;99.90
6118;DHT22;3089;48.202;11.510;2022-10-18T04:30:05;12.40;99.90
6118;DHT22;3089;48.202;11.510;2022-10-18T04:32:34;12.40;99.90
6118;DHT22;3089;48.202;11.510;2022-10-18T04:35:02;12.40;99.90
6118;DHT22;3089;48.202;11.510;2022-10-18T04:37:31;12.40;99.90
6118;DHT22;3089;48.202;11.510;2022-10-18T04:39:59;12.40;99.90
6118;DHT22;3089;48.202;11.510;2022-10-18T04:42:27;12.40;99.90
6118;DHT22;3089;48.202;11.510;2022-10-18T04:44:55;12.30;99.90
6118;DHT22;3089;48.202;11.510;2022-10-18T04:47:22;12.30;99.90
6118;DHT22;3089;48.202;11.510;2022-10-18T04:49:51;12.20;99.90
6118;DHT22;3089;48.202;11.510;2022-10-18T04:52:19;12.10;99.90
6118;DHT22;3089;48.202;11.510;2022-10-18T04:54:47;12.10;99.90
6118;DHT22;3089;48.202;11.510;2022-10-18T04:57:15;12.20;99.90
6118;DHT22;3089;48.202;11.510;2022-10-18T04:59:43;12.20;99.90
6118;DHT22;3089;48.202;11.510;2022-10-18T05:02:10;12.10;99.90
6118;DHT22;3089;48.202;11.510;2022-10-18T05:04:38;12.20;99.90
6118;DHT22;3089;48.202;11.510;2022-10-18T05:07:07;12.20;99.90
6118;DHT22;3089;48.202;11.510;2022-10-18T05:09:35;12.20;99.90
6118;DHT22;3089;48.202;11.510;2022-10-18T05:12:03;12.20;99.90
6118;DHT22;3089;48.202;11.510;2022-10-18T05:14:31;12.20;99.90
6118;DHT22;3089;48.202;11.510;2022-10-18T05:16:58;12.30;99.90
6118;DHT22;3089;48.202;11.510;2022-10-18T05:19:26;12.30;99.90
6118;DHT22;3089;48.202;11.510;2022-10-18T05:21:54;12.30;99.90
6118;DHT22;3089;48.202;11.510;2022-10-18T05:24:23;12.20;99.90
6118;DHT22;3089;48.202;11.510;2022-10-18T05:26:53;12.00;99.90
6118;DHT22;3089;48.202;11.510;2022-10-18T05:29:21;12.00;99.90
6118;DHT22;3089;48.202;11.510;2022-10-18T05:31:49;12.00;99.90
6118;DHT22;3089;48.202;11.510;2022-10-18T05:34:17;11.90;99.90
6118;DHT22;3089;48.202;11.510;2022-10-18T05:36:46;12.00;99.90
6118;DHT22;3089;48.202;11.510;2022-10-18T05:39:14;12.00;99.90
6118;DHT22;3089;48.202;11.510;2022-10-18T05:41:44;12.00;99.90
6118;DHT22;3089;48.202;11.510;2022-10-18T05:44:11;12.10;99.90
6118;DHT22;3089;48.202;11.510;2022-10-18T05:46:39;12.20;99.90
6118;DHT22;3089;48.202;11.510;2022-10-18T05:49:08;12.20;99.90
6118;DHT22;3089;48.202;11.510;2022-10-18T05:51:37;12.20;99.90
6118;DHT22;3089;48.202;11.510;2022-10-18T05:54:04;12.30;99.90
6118;DHT22;3089;48.202;11.510;2022-10-18T05:56:32;12.20;99.90
6118;DHT22;3089;48.202;11.510;2022-10-18T05:59:02;12.20;99.90
6118;DHT22;3089;48.202;11.510;2022-10-18T06:01:30;12.30;99.90
6118;DHT22;3089;48.202;11.510;2022-10-18T06:03:58;12.30;99.90
6118;DHT22;3089;48.202;11.510;2022-10-18T06:06:26;12.20;99.90
6118;DHT22;3089;48.202;11.510;2022-10-18T06:08:54;12.10;99.90
6118;DHT22;3089;48.202;11.510;2022-10-18T06:11:21;12.20;99.90
6118;DHT22;3089;48.202;11.510;2022-10-18T06:13:50;12.20;99.90
6118;DHT22;3089;48.202;11.510;2022-10-18T06:16:21;12.30;99.90
6118;DHT22;3089;48.202;11.510;2022-10-18T06:18:55;12.30;99.90
6118;DHT22;3089;48.202;11.510;2022-10-18T06:21:24;12.30;99.90
6118;DHT22;3089;48.202;11.510;2022-10-18T06:23:53;12.20;99.90
6118;DHT22;3089;48.202;11.510;2022-10-18T06:26:21;12.30;99.90
6118;DHT22;3089;48.202;11.510;2022-10-18T06:28:49;12.30;99.90
6118;DHT22;3089;48.202;11.510;2022-10-18T06:31:17;12.40;99.90
6118;DHT22;3089;48.202;11.510;2022-10-18T06:33:48;12.30;99.90
6118;DHT22;3089;48.202;11.510;2022-10-18T06:36:17;12.20;99.90
6118;DHT22;3089;48.202;11.510;2022-10-18T06:38:47;12.10;99.90
6118;DHT22;3089;48.202;11.510;2022-10-18T06:41:16;12.20;99.90
6118;DHT22;3089;48.202;11.510;2022-10-18T06:43:47;12.30;99.90
6118;DHT22;3089;48.202;11.510;2022-10-18T06:46:15;12.20;99.90
6118;DHT22;3089;48.202;11.510;2022-10-18T06:48:42;12.30;99.90
6118;DHT22;3089;48.202;11.510;2022-10-18T06:51:12;12.20;99.90
6118;DHT22;3089;48.202;11.510;2022-10-18T06:53:40;12.20;99.90
6118;DHT22;3089;48.202;11.510;2022-10-18T06:56:28;12.20;99.90
6118;DHT22;3089;48.202;11.510;2022-10-18T06:58:56;12.30;99.90
6118;DHT22;3089;48.202;11.510;2022-10-18T07:01:29;12.30;99.90
6118;DHT22;3089;48.202;11.510;2022-10-18T07:03:57;12.20;99.90
6118;DHT22;3089;48.202;11.510;2022-10-18T07:06:26;12.30;99.90
6118;DHT22;3089;48.202;11.510;2022-10-18T07:08:54;12.40;99.90
6118;DHT22;3089;48.202;11.510;2022-10-18T07:11:23;12.40;99.90
6118;DHT22;3089;48.202;11.510;2022-10-18T07:13:52;12.40;99.90
6118;DHT22;3089;48.202;11.510;2022-10-18T07:16:20;12.40;99.90
6118;DHT22;3089;48.202;11.510;2022-10-18T07:18:49;12.40;99.90
6118;DHT22;3089;48.202;11.510;2022-10-18T07:21:18;12.50;99.90
6118;DHT22;3089;48.202;11.510;2022-10-18T07:23:48;12.60;99.90
6118;DHT22;3089;48.202;11.510;2022-10-18T07:26:19;12.50;99.90
6118;DHT22;3089;48.202;11.510;2022-10-18T07:28:49;12.50;99.90
6118;DHT22;3089;48.202;11.510;2022-10-18T07:31:17;12.50;99.90
6118;DHT22;3089;48.202;11.510;2022-10-18T07:33:45;12.60;99.90
6118;DHT22;3089;48.202;11.510;2022-10-18T07:36:13;12.60;99.90
6118;DHT22;3089;48.202;11.510;2022-10-18T07:38:41;12.60;99.90
6118;DHT22;3089;48.202;11.510;2022-10-18T07:41:12;12.70;99.90
6118;DHT22;3089;48.202;11.510;2022-10-18T07:43:41;12.70;99.90
6118;DHT22;3089;48.202;11.510;2022-10-18T07:46:10;12.70;99.90
6118;DHT22;3089;48.202;11.510;2022-10-18T07:48:38;12.60;99.90
6118;DHT22;3089;48.202;11.510;2022-10-18T07:51:05;12.60;99.90
6118;DHT22;3089;48.202;11.510;2022-10-18T07:53:33;12.60;99.90
6118;DHT22;3089;48.202;11.510;2022-10-18T07:56:03;12.70;99.90
6118;DHT22;3089;48.202;11.510;2022-10-18T07:58:36;12.70;99.90
6118;DHT22;3089;48.202;11.510;2022-10-18T08:01:05;12.90;99.90
6118;DHT22;3089;48.202;11.510;2022-10-18T08:03:34;12.90;99.90
6118;DHT22;3089;48.202;11.510;2022-10-18T08:06:05;13.00;99.90
6118;DHT22;3089;48.202;11.510;2022-10-18T08:08:35;13.10;99.90
6118;DHT22;3089;48.202;11.510;2022-10-18T08:11:05;13.00;99.90
6118;DHT22;3089;48.202;11.510;2022-10-18T08:13:33;13.10;99.90
6118;DHT22;3089;48.202;11.510;2022-10-18T08:16:04;13.40;99.90
6118;DHT22;3089;48.202;11.510;2022-10-18T08:18:32;14.20;99.90
6118;DHT22;3089;48.202;11.510;2022-10-18T08:21:01;15.00;99.90
6118;DHT22;3089;48.202;11.510;2022-10-18T08:23:29;14.40;99.90
6118;DHT22;3089;48.202;11.510;2022-10-18T08:26:00;14.00;99.90
6118;DHT22;3089;48.202;11.510;2022-10-18T08:28:28;14.00;99.90
6118;DHT22;3089;48.202;11.510;2022-10-18T08:31:01;13.80;99.90
6118;DHT22;3089;48.202;11.510;2022-10-18T08:33:30;14.00;99.90
6118;DHT22;3089;48.202;11.510;2022-10-18T08:35:59;14.50;99.90
6118;DHT22;3089;48.202;11.510;2022-10-18T08:38:29;14.40;99.90
6118;DHT22;3089;48.202;11.510;2022-10-18T08:40:58;14.20;99.90
6118;DHT22;3089;48.202;11.510;2022-10-18T08:43:32;14.30;99.90
6118;DHT22;3089;48.202;11.510;2022-10-18T08:46:03;14.40;99.90
6118;DHT22;3089;48.202;11.510;2022-10-18T08:48:34;14.40;99.90
6118;DHT22;3089;48.202;11.510;2022-10-18T08:51:06;14.60;99.90
6118;DHT22;3089;48.202;11.510;2022-10-18T08:53:44;14.90;99.90
6118;DHT22;3089;48.202;11.510;2022-10-18T08:56:15;14.90;99.90
6118;DHT22;3089;48.202;11.510;2022-10-18T08:58:47;15.30;99.90
6118;DHT22;3089;48.202;11.510;2022-10-18T09:01:23;15.50;99.90
6118;DHT22;3089;48.202;11.510;2022-10-18T09:04:13;15.90;99.90
6118;DHT22;3089;48.202;11.510;2022-10-18T09:06:49;15.40;99.90
6118;DHT22;3089;48.202;11.510;2022-10-18T09:09:34;15.70;99.90
6118;DHT22;3089;48.202;11.510;2022-10-18T09:12:19;16.00;99.90
6118;DHT22;3089;48.202;11.510;2022-10-18T09:15:07;16.10;99.90
6118;DHT22;3089;48.202;11.510;2022-10-18T09:17:46;16.20;99.90
6118;DHT22;3089;48.202;11.510;2022-10-18T09:20:22;17.20;99.90
6118;DHT22;3089;48.202;11.510;2022-10-18T09:22:55;17.00;99.90
6118;DHT22;3089;48.202;11.510;2022-10-18T09:25:25;17.60;99.90
6118;DHT22;3089;48.202;11.510;2022-10-18T09:27:56;18.40;99.90
6118;DHT22;3089;48.202;11.510;2022-10-18T09:30:42;18.60;99.90
6118;DHT22;3089;48.202;11.510;2022-10-18T09:33:33;17.40;99.90
6118;DHT22;3089;48.202;11.510;2022-10-18T09:36:06;17.20;99.90
6118;DHT22;3089;48.202;11.510;2022-10-18T09:38:40;17.70;99.90
6118;DHT22;3089;48.202;11.510;2022-10-18T09:41:14;17.40;99.90
6118;DHT22;3089;48.202;11.510;2022-10-18T09:43:52;17.10;99.90
6118;DHT22;3089;48.202;11.510;2022-10-18T09:46:24;16.90;99.90
6118;DHT22;3089;48.202;11.510;2022-10-18T09:48:57;16.60;99.90
6118;DHT22;3089;48.202;11.510;2022-10-18T09:51:32;16.30;99.90
6118;DHT22;3089;48.202;11.510;2022-10-18T09:54:16;16.40;99.90
6118;DHT22;3089;48.202;11.510;2022-10-18T09:56:48;16.50;99.90
6118;DHT22;3089;48.202;11.510;2022-10-18T09:59:29;16.40;99.90
6118;DHT22;3089;48.202;11.510;2022-10-18T10:01:57;16.80;99.90
6118;DHT22;3089;48.202;11.510;2022-10-18T10:04:27;16.80;99.90
6118;DHT22;3089;48.202;11.510;2022-10-18T10:06:56;17.00;99.90
6118;DHT22;3089;48.202;11.510;2022-10-18T10:09:27;16.70;99.90
6118;DHT22;3089;48.202;11.510;2022-10-18T10:11:56;16.80;99.90
6118;DHT22;3089;48.202;11.510;2022-10-18T10:14:25;16.70;99.90
6118;DHT22;3089;48.202;11.510;2022-10-18T10:16:54;17.00;99.90
6118;DHT22;3089;48.202;11.510;2022-10-18T10:19:27;17.50;99.90
6118;DHT22;3089;48.202;11.510;2022-10-18T10:22:01;17.50;99.90
6118;DHT22;3089;48.202;11.510;2022-10-18T10:24:42;17.70;99.90
6118;DHT22;3089;48.202;11.510;2022-10-18T10:27:17;17.30;99.90
6118;DHT22;3089;48.202;11.510;2022-10-18T10:29:55;17.80;99.90
6118;DHT22;3089;48.202;11.510;2022-10-18T10:32:29;17.80;99.90
6118;DHT22;3089;48.202;11.510;2022-10-18T10:34:58;18.00;99.90
6118;DHT22;3089;48.202;11.510;2022-10-18T10:37:30;18.10;99.90
6118;DHT22;3089;48.202;11.510;2022-10-18T10:40:11;18.00;99.90
6118;DHT22;3089;48.202;11.510;2022-10-18T10:43:13;18.10;99.90
6118;DHT22;3089;48.202;11.510;2022-10-18T10:46:05;18.40;99.90
6118;DHT22;3089;48.202;11.510;2022-10-18T10:48:40;18.80;99.90
6118;DHT22;3089;48.202;11.510;2022-10-18T10:51:16;18.60;99.90
6118;DHT22;3089;48.202;11.510;2022-10-18T10:53:54;18.80;99.90
6118;DHT22;3089;48.202;11.510;2022-10-18T10:56:26;18.80;99.90
6118;DHT22;3089;48.202;11.510;2022-10-18T10:58:58;18.90;99.90
6118;DHT22;3089;48.202;11.510;2022-10-18T11:01:30;18.90;99.90
6118;DHT22;3089;48.202;11.510;2022-10-18T11:04:00;18.90;99.90
6118;DHT22;3089;48.202;11.510;2022-10-18T11:06:45;18.80;99.90
6118;DHT22;3089;48.202;11.510;2022-10-18T11:09:36;18.90;99.90
6118;DHT22;3089;48.202;11.510;2022-10-18T11:12:24;19.30;99.90
6118;DHT22;3089;48.202;11.510;2022-10-18T11:14:58;19.10;99.90
6118;DHT22;3089;48.202;11.510;2022-10-18T11:17:33;19.30;99.90
6118;DHT22;3089;48.202;11.510;2022-10-18T11:20:18;19.10;99.90
6118;DHT22;3089;48.202;11.510;2022-10-18T11:22:59;19.20;99.90
6118;DHT22;3089;48.202;11.510;2022-10-18T11:25:53;19.30;99.90
6118;DHT22;3089;48.202;11.510;2022-10-18T11:28:39;19.70;99.90
6118;DHT22;3089;48.202;11.510;2022-10-18T11:31:15;19.60;99.90
6118;DHT22;3089;48.202;11.510;2022-10-18T11:33:57;19.50;99.90
6118;DHT22;3089;48.202;11.510;2022-10-18T11:36:42;19.40;99.90
6118;DHT22;3089;48.202;11.510;2022-10-18T11:39:40;19.30;99.90
6118;DHT22;3089;48.202;11.510;2022-10-18T11:42:14;19.40;99.90
6118;DHT22;3089;48.202;11.510;2022-10-18T11:44:52;19.60;99.90
6118;DHT22;3089;48.202;11.510;2022-10-18T11:47:26;19.50;99.90
6118;DHT22;3089;48.202;11.510;2022-10-18T11:50:05;19.40;99.90
6118;DHT22;3089;48.202;11.510;2022-10-18T11:52:43;19.70;99.90
6118;DHT22;3089;48.202;11.510;2022-10-18T11:55:26;19.60;99.90
6118;DHT22;3089;48.202;11.510;2022-10-18T11:58:05;19.50;99.90
6118;DHT22;3089;48.202;11.510;2022-10-18T12:00:45;19.80;99.90
6118;DHT22;3089;48.202;11.510;2022-10-18T12:06:04;19.80;99.90
6118;DHT22;3089;48.202;11.510;2022-10-18T12:08:36;20.00;99.90
6118;DHT22;3089;48.202;11.510;2022-10-18T12:11:11;19.80;99.90
6118;DHT22;3089;48.202;11.510;2022-10-18T12:13:43;20.20;99.90
6118;DHT22;3089;48.202;11.510;2022-10-18T12:16:13;20.00;99.90
6118;DHT22;3089;48.202;11.510;2022-10-18T12:18:49;19.60;99.90
6118;DHT22;3089;48.202;11.510;2022-10-18T12:21:20;19.60;99.90
6118;DHT22;3089;48.202;11.510;2022-10-18T12:23:54;19.90;99.90
6118;DHT22;3089;48.202;11.510;2022-10-18T12:26:26;20.50;99.90
6118;DHT22;3089;48.202;11.510;2022-10-18T12:29:07;20.50;99.90
6118;DHT22;3089;48.202;11.510;2022-10-18T12:31:42;20.20;99.90
6118;DHT22;3089;48.202;11.510;2022-10-18T12:34:25;20.20;99.90
6118;DHT22;3089;48.202;11.510;2022-10-18T12:37:07;20.30;99.90
6118;DHT22;3089;48.202;11.510;2022-10-18T12:39:40;20.40;99.90
6118;DHT22;3089;48.202;11.510;2022-10-18T12:42:32;20.30;99.90
6118;DHT22;3089;48.202;11.510;2022-10-18T12:45:02;20.50;99.90
6118;DHT22;3089;48.202;11.510;2022-10-18T12:47:31;20.30;99.90
6118;DHT22;3089;48.202;11.510;2022-10-18T12:50:02;20.20;99.90
6118;DHT22;3089;48.202;11.510;2022-10-18T12:52:30;20.30;99.90
6118;DHT22;3089;48.202;11.510;2022-10-18T12:55:06;19.90;99.90
6118;DHT22;3089;48.202;11.510;2022-10-18T12:58:28;20.10;99.90
6118;DHT22;3089;48.202;11.510;2022-10-18T13:01:02;20.00;99.90
6118;DHT22;3089;48.202;11.510;2022-10-18T13:03:51;19.90;99.90
6118;DHT22;3089;48.202;11.510;2022-10-18T13:06:20;20.00;99.90
6118;DHT22;3089;48.202;11.510;2022-10-18T13:09:14;20.60;99.90
6118;DHT22;3089;48.202;11.510;2022-10-18T13:11:42;20.50;99.90
6118;DHT22;3089;48.202;11.510;2022-10-18T13:14:24;20.50;99.90
6118;DHT22;3089;48.202;11.510;2022-10-18T13:16:59;20.40;99.90
6118;DHT22;3089;48.202;11.510;2022-10-18T13:19:36;20.20;99.90
6118;DHT22;3089;48.202;11.510;2022-10-18T13:22:24;20.10;99.90
6118;DHT22;3089;48.202;11.510;2022-10-18T13:25:00;19.90;99.90
6118;DHT22;3089;48.202;11.510;2022-10-18T13:27:41;19.90;99.90
6118;DHT22;3089;48.202;11.510;2022-10-18T13:30:30;20.10;99.90
6118;DHT22;3089;48.202;11.510;2022-10-18T13:33:12;20.10;99.90
6118;DHT22;3089;48.202;11.510;2022-10-18T13:35:48;19.80;99.90
6118;DHT22;3089;48.202;11.510;2022-10-18T13:38:39;20.00;99.90
6118;DHT22;3089;48.202;11.510;2022-10-18T13:41:10;20.00;99.90
6118;DHT22;3089;48.202;11.510;2022-10-18T13:44:16;19.80;99.90
6118;DHT22;3089;48.202;11.510;2022-10-18T13:50:30;19.80;99.90
6118;DHT22;3089;48.202;11.510;2022-10-18T13:59:01;19.70;99.90
6118;DHT22;3089;48.202;11.510;2022-10-18T14:01:48;19.90;99.90
6118;DHT22;3089;48.202;11.510;2022-10-18T14:04:38;19.70;99.90
6118;DHT22;3089;48.202;11.510;2022-10-18T14:07:10;19.70;99.90
6118;DHT22;3089;48.202;11.510;2022-10-18T14:09:45;19.60;99.90
6118;DHT22;3089;48.202;11.510;2022-10-18T14:12:25;19.50;99.90
6118;DHT22;3089;48.202;11.510;2022-10-18T14:15:01;19.50;99.90
6118;DHT22;3089;48.202;11.510;2022-10-18T14:17:35;19.50;99.90
6118;DHT22;3089;48.202;11.510;2022-10-18T14:20:15;19.60;99.90
6118;DHT22;3089;48.202;11.510;2022-10-18T14:22:48;19.70;99.90
6118;DHT22;3089;48.202;11.510;2022-10-18T14:25:20;19.50;99.90
6118;DHT22;3089;48.202;11.510;2022-10-18T14:27:48;19.70;99.90
6118;DHT22;3089;48.202;11.510;2022-10-18T14:30:28;19.80;99.90
6118;DHT22;3089;48.202;11.510;2022-10-18T14:32:56;19.90;99.90
6118;DHT22;3089;48.202;11.510;2022-10-18T14:35:26;19.70;99.90
6118;DHT22;3089;48.202;11.510;2022-10-18T14:38:00;19.80;99.90
6118;DHT22;3089;48.202;11.510;2022-10-18T14:40:34;19.60;99.90
6118;DHT22;3089;48.202;11.510;2022-10-18T14:43:05;19.50;99.90
6118;DHT22;3089;48.202;11.510;2022-10-18T14:45:33;19.60;99.90
6118;DHT22;3089;48.202;11.510;2022-10-18T14:48:06;19.60;99.90
6118;DHT22;3089;48.202;11.510;2022-10-18T14:50:34;19.80;99.90
6118;DHT22;3089;48.202;11.510;2022-10-18T14:53:10;19.70;99.90
6118;DHT22;3089;48.202;11.510;2022-10-18T14:55:40;19.70;99.90
6118;DHT22;3089;48.202;11.510;2022-10-18T14:58:13;19.60;99.90
6118;DHT22;3089;48.202;11.510;2022-10-18T15:00:42;19.50;99.90
6118;DHT22;3089;48.202;11.510;2022-10-18T15:03:15;19.20;99.90
6118;DHT22;3089;48.202;11.510;2022-10-18T15:05:52;19.20;99.90
6118;DHT22;3089;48.202;11.510;2022-10-18T15:08:22;19.10;99.90
6118;DHT22;3089;48.202;11.510;2022-10-18T15:10:51;19.10;99.90
6118;DHT22;3089;48.202;11.510;2022-10-18T15:13:20;19.10;99.90
6118;DHT22;3089;48.202;11.510;2022-10-18T15:15:49;19.10;99.90
6118;DHT22;3089;48.202;11.510;2022-10-18T15:18:20;19.00;99.90
6118;DHT22;3089;48.202;11.510;2022-10-18T15:21:07;19.00;99.90
6118;DHT22;3089;48.202;11.510;2022-10-18T15:23:37;19.00;99.90
6118;DHT22;3089;48.202;11.510;2022-10-18T15:26:06;19.10;99.90
6118;DHT22;3089;48.202;11.510;2022-10-18T15:28:40;18.90;99.90
6118;DHT22;3089;48.202;11.510;2022-10-18T15:31:22;19.00;99.90
6118;DHT22;3089;48.202;11.510;2022-10-18T15:33:51;19.00;99.90
6118;DHT22;3089;48.202;11.510;2022-10-18T15:36:26;19.00;99.90
6118;DHT22;3089;48.202;11.510;2022-10-18T15:39:05;19.00;99.90
6118;DHT22;3089;48.202;11.510;2022-10-18T15:41:44;18.90;99.90
6118;DHT22;3089;48.202;11.510;2022-10-18T15:44:24;18.90;99.90
6118;DHT22;3089;48.202;11.510;2022-10-18T15:46:54;18.90;99.90
6118;DHT22;3089;48.202;11.510;2022-10-18T15:49:53;18.90;99.90
6118;DHT22;3089;48.202;11.510;2022-10-18T15:52:31;18.80;99.90
6118;DHT22;3089;48.202;11.510;2022-10-18T15:55:47;18.70;99.90
6118;DHT22;3089;48.202;11.510;2022-10-18T15:58:18;18.60;99.90
6118;DHT22;3089;48.202;11.510;2022-10-18T16:00:48;18.50;99.90
6118;DHT22;3089;48.202;11.510;2022-10-18T16:03:17;18.40;99.90
6118;DHT22;3089;48.202;11.510;2022-10-18T16:05:47;18.40;99.90
6118;DHT22;3089;48.202;11.510;2022-10-18T16:08:19;18.30;99.90
6118;DHT22;3089;48.202;11.510;2022-10-18T16:10:49;18.20;99.90
6118;DHT22;3089;48.202;11.510;2022-10-18T16:13:17;18.20;99.90
6118;DHT22;3089;48.202;11.510;2022-10-18T16:15:45;18.20;99.90
6118;DHT22;3089;48.202;11.510;2022-10-18T16:18:15;18.10;99.90
6118;DHT22;3089;48.202;11.510;2022-10-18T16:20:44;18.10;99.90
6118;DHT22;3089;48.202;11.510;2022-10-18T16:23:16;18.00;99.90
6118;DHT22;3089;48.202;11.510;2022-10-18T16:25:44;18.00;99.90
6118;DHT22;3089;48.202;11.510;2022-10-18T16:28:15;18.10;99.90
6118;DHT22;3089;48.202;11.510;2022-10-18T16:30:48;18.00;99.90
6118;DHT22;3089;48.202;11.510;2022-10-18T16:33:18;18.00;99.90
6118;DHT22;3089;48.202;11.510;2022-10-18T16:35:47;18.00;99.90
6118;DHT22;3089;48.202;11.510;2022-10-18T16:38:25;17.90;99.90